Bothnia — PBLG — position and weather

sailwx.info

Track history (hours):
 
Tides and Currents Weather Stations Pressure Air Temp Water Temp Dewpoint Dewpoint Depression Visibility Wind Speed Wind Dir Waves Ship Positions

Bothnia

Last reported at 2017-May-27 22:57 UTC. Time now 2017-May-27 23:16 UTC.
Position N 51°07' E 003°46'.

Length 82 m; draft 5.6 m.

Type: Cargo ship. MMSI: 244741000.

Date/timePositionNaut miles runAvg speedWind from/ knotsBaromVisibWave heightAir tempDewpointWater temp
2017-May-27 22:57N 51°07' E 003°46'0 0.0
2017-May-27 22:30N 51°07' E 003°46'0 0.0
2017-May-27 21:54N 51°07' E 003°46'0 0.0
2017-May-27 21:30N 51°07' E 003°46'0 0.0
2017-May-27 21:00N 51°07' E 003°46'0 0.0
2017-May-27 20:30N 51°07' E 003°46'0 0.0
2017-May-27 20:00N 51°07' E 003°46'0 0.0
2017-May-27 19:30N 51°07' E 003°46'0 0.0
2017-May-27 18:57N 51°07' E 003°46'0 0.0
2017-May-27 18:30N 51°07' E 003°46'0 0.0
2017-May-27 18:00N 51°07' E 003°46'0 0.0
2017-May-27 17:30N 51°07' E 003°46'0 0.0
2017-May-27 17:00N 51°07' E 003°46'0 0.0
2017-May-27 16:30N 51°07' E 003°46'0 0.0
2017-May-27 16:00N 51°07' E 003°46'0 0.0
2017-May-27 15:30N 51°07' E 003°46'0 0.0
2017-May-27 14:57N 51°07' E 003°46'0 0.0
2017-May-27 14:00N 51°07' E 003°46'0 0.0
2017-May-27 13:30N 51°07' E 003°46'0 0.0
2017-May-27 12:57N 51°07' E 003°46'0 0.0
2017-May-27 12:30N 51°07' E 003°46'0 0.0
2017-May-27 12:00N 51°07' E 003°46'0 0.0
2017-May-27 11:30N 51°07' E 003°46'0 0.0
2017-May-27 11:00N 51°07' E 003°46'0 0.0
2017-May-27 10:24N 51°07' E 003°46'0 0.0
2017-May-27 10:00N 51°07' E 003°46'0 0.0
2017-May-27 09:24N 51°07' E 003°46'0 0.0
2017-May-27 09:00N 51°07' E 003°46'0 0.0
2017-May-27 08:30N 51°07' E 003°46'0 0.0
2017-May-27 08:00N 51°07' E 003°46'0 0.0
2017-May-27 07:30N 51°07' E 003°46'0 0.0
2017-May-27 07:00N 51°07' E 003°46'0 0.0
2017-May-27 06:30N 51°07' E 003°46'0 0.0
2017-May-27 06:00N 51°07' E 003°46'0 0.0
2017-May-27 05:31N 51°07' E 003°46'0 0.0
2017-May-27 05:00N 51°07' E 003°46'0 0.0
2017-May-27 04:30N 51°07' E 003°46'0 0.0
2017-May-27 04:00N 51°07' E 003°46'0 0.0
2017-May-27 03:30N 51°07' E 003°46'0 0.0
2017-May-27 03:00N 51°07' E 003°46'0 0.0
2017-May-27 02:30N 51°07' E 003°46'0 0.0
2017-May-27 02:00N 51°07' E 003°46'0 0.0
2017-May-27 01:30N 51°07' E 003°46'0 0.0
2017-May-27 01:00N 51°07' E 003°46'0 0.0
2017-May-27 00:30N 51°07' E 003°46'0 0.0
2017-May-27 00:00N 51°07' E 003°46'0 0.0
2017-May-26 23:30N 51°07' E 003°46'0 0.0
2017-May-26 23:00N 51°07' E 003°46'0 0.0
2017-May-26 22:30N 51°07' E 003°46'0 0.0
2017-May-26 22:00N 51°07' E 003°46'0 0.0
2017-May-26 21:30N 51°07' E 003°46'0 0.0
2017-May-26 21:00N 51°07' E 003°46'0 0.0
2017-May-26 20:30N 51°07' E 003°46'0 0.0
2017-May-26 20:00N 51°07' E 003°46'0 0.0
2017-May-26 19:30N 51°07' E 003°46'0 0.0
2017-May-26 19:00N 51°07' E 003°46'0 0.0
2017-May-26 18:30N 51°07' E 003°46'0 0.0
2017-May-26 18:00N 51°07' E 003°46'0 0.0
2017-May-26 17:30N 51°07' E 003°46'0 0.0
2017-May-26 17:00N 51°07' E 003°46'0 0.0
2017-May-26 16:30N 51°07' E 003°46'0 0.0
2017-May-26 16:00N 51°07' E 003°46'0 0.0
2017-May-26 15:30N 51°07' E 003°46'0 0.0
2017-May-26 15:00N 51°07' E 003°46'0 0.0
2017-May-26 14:30N 51°07' E 003°46'1 0.8
2017-May-26 13:31N 51°08' E 003°46'5 9.5
2017-May-26 13:00N 51°13' E 003°48'4 8.1
2017-May-26 12:30N 51°16' E 003°50'3 6.8
2017-May-26 12:00N 51°20' E 003°49'0 0.8
2017-May-26 11:30N 51°20' E 003°49'0 0.7
2017-May-26 11:00N 51°20' E 003°49'3 6.9
2017-May-26 10:30N 51°22' E 003°44'4 8.0
2017-May-26 10:00N 51°26' E 003°41'4 7.7
2017-May-26 09:30N 51°26' E 003°35'4 8.6
2017-May-26 09:00N 51°29' E 003°30'4 8.9
2017-May-26 08:30N 51°32' E 003°25'9 8.2
2017-May-26 07:27N 51°40' E 003°19'5 8.3
2017-May-26 06:52N 51°44' E 003°17'3 8.1
2017-May-26 06:28N 51°48' E 003°16'4 7.9
2017-May-26 05:59N 51°51' E 003°18'4 7.8
2017-May-26 05:30N 51°55' E 003°19'4 8.1
2017-May-26 04:58N 51°59' E 003°20'5 9.6
2017-May-26 04:29N 52°04' E 003°22'14 9.0
2017-May-26 02:54N 52°17' E 003°30'4 7.8
2017-May-26 02:27N 52°21' E 003°32'9 7.8
2017-May-26 01:18N 52°29' E 003°37'2 8.3
2017-May-26 01:00N 52°31' E 003°38'4 8.5
2017-May-26 00:30N 52°35' E 003°41'5 8.9
2017-May-26 00:00N 52°40' E 003°43'5 9.4
2017-May-25 23:30N 52°44' E 003°46'5 9.7
2017-May-25 23:01N 52°48' E 003°50'5 9.8
2017-May-25 22:30N 52°53' E 003°53'6 9.9
2017-May-25 21:55N 52°57' E 003°60'1310.0
2017-May-25 20:36N 53°06' E 004°15'1 9.7
2017-May-25 20:30N 53°07' E 004°16'5 9.5
2017-May-25 20:00N 53°10' E 004°22'273 9.3
2017-May-24 14:44N 57°05' E 008°25'2 9.8
2017-May-24 14:30N 57°07' E 008°27'9 8.9
2017-May-24 13:30N 57°13' E 008°39'5 9.1
2017-May-24 12:59N 57°15' E 008°47'42 9.2
2017-May-24 08:24N 57°37' E 009°53'4 9.1
2017-May-24 07:56N 57°39' E 010°00'5 9.3
2017-May-24 07:24N 57°41' E 010°08'4 9.4
2017-May-24 07:00N 57°43' E 010°15'5 9.5
2017-May-24 06:30N 57°45' E 010°23'5 9.6
2017-May-24 05:59N 57°47' E 010°32'5 9.5
2017-May-24 05:30N 57°47' E 010°40'5 9.6
2017-May-24 05:00N 57°46' E 010°49'510.4
2017-May-24 04:30N 57°43' E 010°56'5 9.9
2017-May-24 04:00N 57°39' E 011°03'5 9.9
2017-May-24 03:30N 57°36' E 011°10'5 9.9
2017-May-24 03:00N 57°33' E 011°17'5 9.6
2017-May-24 02:30N 57°29' E 011°23'5 9.2
2017-May-24 02:00N 57°26' E 011°28'5 9.5
2017-May-24 01:30N 57°21' E 011°30'510.0
2017-May-24 01:00N 57°16' E 011°34'510.7
2017-May-24 00:31N 57°11' E 011°37'611.0
2017-May-24 00:00N 57°06' E 011°40'510.9
2017-May-23 23:30N 57°01' E 011°44'510.8
2017-May-23 23:00N 56°56' E 011°47'510.5
2017-May-23 22:29N 56°51' E 011°51'510.6
2017-May-23 21:59N 56°46' E 011°54'510.6
2017-May-23 21:30N 56°41' E 011°57'510.2
2017-May-23 21:00N 56°36' E 011°57'  
2017-May-21 08:59N 56°20' E 011°53'2111.7
2017-May-21 07:10N 56°41' E 011°51'311.4
2017-May-21 06:53N 56°45' E 011°51'410.9
2017-May-21 06:30N 56°49' E 011°49'611.0
2017-May-21 06:00N 56°54' E 011°46'511.0
2017-May-21 05:30N 56°59' E 011°43'610.7
2017-May-21 04:58N 57°04' E 011°39'510.7
2017-May-21 04:29N 57°09' E 011°36'510.9
2017-May-21 04:00N 57°14' E 011°33'511.1
2017-May-21 03:30N 57°19' E 011°30'611.3
2017-May-21 03:00N 57°25' E 011°26'510.9
2017-May-21 02:30N 57°30' E 011°24'611.5
2017-May-21 02:00N 57°36' E 011°24'611.4
2017-May-21 01:30N 57°42' E 011°25'611.3
2017-May-21 01:00N 57°47' E 011°25'510.4
2017-May-21 00:31N 57°52' E 011°29'5 9.5
2017-May-21 00:00N 57°55' E 011°36'510.1
2017-May-20 23:30N 57°58' E 011°43'610.1
2017-May-20 22:54N 58°04' E 011°47'4 9.8
2017-May-20 22:28N 58°08' E 011°50'6 9.9
2017-May-20 21:54N 58°13' E 011°51'8 0.3
2017-May-19 22:39N 58°21' E 011°54'0 0.0
2017-May-19 22:12N 58°21' E 011°54'0 0.0
2017-May-19 22:00N 58°21' E 011°54'4 0.1
2017-May-18 03:59N 58°19' E 011°48'610.0
2017-May-18 03:26N 58°13' E 011°51'4 9.9
2017-May-18 02:59N 58°09' E 011°50'5 9.7
2017-May-18 02:26N 58°04' E 011°47'4 9.5
2017-May-18 02:00N 57°60' E 011°45'610.0
2017-May-18 01:27N 57°56' E 011°39'4 9.9
2017-May-18 01:00N 57°54' E 011°31'5 9.7
2017-May-18 00:30N 57°50' E 011°24'4 8.6
2017-May-18 00:00N 57°50' E 011°17'4 8.6
2017-May-17 23:30N 57°49' E 011°08'4 8.7
2017-May-17 23:00N 57°49' E 011°00'  
Track history (hours):
 
Tides and Currents Weather Stations Pressure Air Temp Water Temp Dewpoint Dewpoint Depression Visibility Wind Speed Wind Dir Waves Ship Positions

Bothnia

Last reported at 2017-May-27 22:57 UTC. Time now 2017-May-27 23:16 UTC.
Position N 51°07' E 003°46'.

Length 82 m; draft 5.6 m.

Type: Cargo ship. MMSI: 244741000.

Date/timePositionNaut miles runAvg speedWind from/ knotsBaromVisibWave heightAir tempDewpointWater temp
2017-May-27 22:57N 51°07' E 003°46'0 0.0
2017-May-27 22:30N 51°07' E 003°46'0 0.0
2017-May-27 21:54N 51°07' E 003°46'0 0.0
2017-May-27 21:30N 51°07' E 003°46'0 0.0
2017-May-27 21:00N 51°07' E 003°46'0 0.0
2017-May-27 20:30N 51°07' E 003°46'0 0.0
2017-May-27 20:00N 51°07' E 003°46'0 0.0
2017-May-27 19:30N 51°07' E 003°46'0 0.0
2017-May-27 18:57N 51°07' E 003°46'0 0.0
2017-May-27 18:30N 51°07' E 003°46'0 0.0
2017-May-27 18:00N 51°07' E 003°46'0 0.0
2017-May-27 17:30N 51°07' E 003°46'0 0.0
2017-May-27 17:00N 51°07' E 003°46'0 0.0
2017-May-27 16:30N 51°07' E 003°46'0 0.0
2017-May-27 16:00N 51°07' E 003°46'0 0.0
2017-May-27 15:30N 51°07' E 003°46'0 0.0
2017-May-27 14:57N 51°07' E 003°46'0 0.0
2017-May-27 14:00N 51°07' E 003°46'0 0.0
2017-May-27 13:30N 51°07' E 003°46'0 0.0
2017-May-27 12:57N 51°07' E 003°46'0 0.0
2017-May-27 12:30N 51°07' E 003°46'0 0.0
2017-May-27 12:00N 51°07' E 003°46'0 0.0
2017-May-27 11:30N 51°07' E 003°46'0 0.0
2017-May-27 11:00N 51°07' E 003°46'0 0.0
2017-May-27 10:24N 51°07' E 003°46'0 0.0
2017-May-27 10:00N 51°07' E 003°46'0 0.0
2017-May-27 09:24N 51°07' E 003°46'0 0.0
2017-May-27 09:00N 51°07' E 003°46'0 0.0
2017-May-27 08:30N 51°07' E 003°46'0 0.0
2017-May-27 08:00N 51°07' E 003°46'0 0.0
2017-May-27 07:30N 51°07' E 003°46'0 0.0
2017-May-27 07:00N 51°07' E 003°46'0 0.0
2017-May-27 06:30N 51°07' E 003°46'0 0.0
2017-May-27 06:00N 51°07' E 003°46'0 0.0
2017-May-27 05:31N 51°07' E 003°46'0 0.0
2017-May-27 05:00N 51°07' E 003°46'0 0.0
2017-May-27 04:30N 51°07' E 003°46'0 0.0
2017-May-27 04:00N 51°07' E 003°46'0 0.0
2017-May-27 03:30N 51°07' E 003°46'0 0.0
2017-May-27 03:00N 51°07' E 003°46'0 0.0
2017-May-27 02:30N 51°07' E 003°46'0 0.0
2017-May-27 02:00N 51°07' E 003°46'0 0.0
2017-May-27 01:30N 51°07' E 003°46'0 0.0
2017-May-27 01:00N 51°07' E 003°46'0 0.0
2017-May-27 00:30N 51°07' E 003°46'0 0.0
2017-May-27 00:00N 51°07' E 003°46'0 0.0
2017-May-26 23:30N 51°07' E 003°46'0 0.0
2017-May-26 23:00N 51°07' E 003°46'0 0.0
2017-May-26 22:30N 51°07' E 003°46'0 0.0
2017-May-26 22:00N 51°07' E 003°46'0 0.0
2017-May-26 21:30N 51°07' E 003°46'0 0.0
2017-May-26 21:00N 51°07' E 003°46'0 0.0
2017-May-26 20:30N 51°07' E 003°46'0 0.0
2017-May-26 20:00N 51°07' E 003°46'0 0.0
2017-May-26 19:30N 51°07' E 003°46'0 0.0
2017-May-26 19:00N 51°07' E 003°46'0 0.0
2017-May-26 18:30N 51°07' E 003°46'0 0.0
2017-May-26 18:00N 51°07' E 003°46'0 0.0
2017-May-26 17:30N 51°07' E 003°46'0 0.0
2017-May-26 17:00N 51°07' E 003°46'0 0.0
2017-May-26 16:30N 51°07' E 003°46'0 0.0
2017-May-26 16:00N 51°07' E 003°46'0 0.0
2017-May-26 15:30N 51°07' E 003°46'0 0.0
2017-May-26 15:00N 51°07' E 003°46'0 0.0
2017-May-26 14:30N 51°07' E 003°46'1 0.8
2017-May-26 13:31N 51°08' E 003°46'5 9.5
2017-May-26 13:00N 51°13' E 003°48'4 8.1
2017-May-26 12:30N 51°16' E 003°50'3 6.8
2017-May-26 12:00N 51°20' E 003°49'0 0.8
2017-May-26 11:30N 51°20' E 003°49'0 0.7
2017-May-26 11:00N 51°20' E 003°49'3 6.9
2017-May-26 10:30N 51°22' E 003°44'4 8.0
2017-May-26 10:00N 51°26' E 003°41'4 7.7
2017-May-26 09:30N 51°26' E 003°35'4 8.6
2017-May-26 09:00N 51°29' E 003°30'4 8.9
2017-May-26 08:30N 51°32' E 003°25'9 8.2
2017-May-26 07:27N 51°40' E 003°19'5 8.3
2017-May-26 06:52N 51°44' E 003°17'3 8.1
2017-May-26 06:28N 51°48' E 003°16'4 7.9
2017-May-26 05:59N 51°51' E 003°18'4 7.8
2017-May-26 05:30N 51°55' E 003°19'4 8.1
2017-May-26 04:58N 51°59' E 003°20'5 9.6
2017-May-26 04:29N 52°04' E 003°22'14 9.0
2017-May-26 02:54N 52°17' E 003°30'4 7.8
2017-May-26 02:27N 52°21' E 003°32'9 7.8
2017-May-26 01:18N 52°29' E 003°37'2 8.3
2017-May-26 01:00N 52°31' E 003°38'4 8.5
2017-May-26 00:30N 52°35' E 003°41'5 8.9
2017-May-26 00:00N 52°40' E 003°43'5 9.4
2017-May-25 23:30N 52°44' E 003°46'5 9.7
2017-May-25 23:01N 52°48' E 003°50'5 9.8
2017-May-25 22:30N 52°53' E 003°53'6 9.9
2017-May-25 21:55N 52°57' E 003°60'1310.0
2017-May-25 20:36N 53°06' E 004°15'1 9.7
2017-May-25 20:30N 53°07' E 004°16'5 9.5
2017-May-25 20:00N 53°10' E 004°22'273 9.3
2017-May-24 14:44N 57°05' E 008°25'2 9.8
2017-May-24 14:30N 57°07' E 008°27'9 8.9
2017-May-24 13:30N 57°13' E 008°39'5 9.1
2017-May-24 12:59N 57°15' E 008°47'42 9.2
2017-May-24 08:24N 57°37' E 009°53'4 9.1
2017-May-24 07:56N 57°39' E 010°00'5 9.3
2017-May-24 07:24N 57°41' E 010°08'4 9.4
2017-May-24 07:00N 57°43' E 010°15'5 9.5
2017-May-24 06:30N 57°45' E 010°23'5 9.6
2017-May-24 05:59N 57°47' E 010°32'5 9.5
2017-May-24 05:30N 57°47' E 010°40'5 9.6
2017-May-24 05:00N 57°46' E 010°49'510.4
2017-May-24 04:30N 57°43' E 010°56'5 9.9
2017-May-24 04:00N 57°39' E 011°03'5 9.9
2017-May-24 03:30N 57°36' E 011°10'5 9.9
2017-May-24 03:00N 57°33' E 011°17'5 9.6
2017-May-24 02:30N 57°29' E 011°23'5 9.2
2017-May-24 02:00N 57°26' E 011°28'5 9.5
2017-May-24 01:30N 57°21' E 011°30'510.0
2017-May-24 01:00N 57°16' E 011°34'510.7
2017-May-24 00:31N 57°11' E 011°37'611.0
2017-May-24 00:00N 57°06' E 011°40'510.9
2017-May-23 23:30N 57°01' E 011°44'510.8
2017-May-23 23:00N 56°56' E 011°47'510.5
2017-May-23 22:29N 56°51' E 011°51'510.6
2017-May-23 21:59N 56°46' E 011°54'510.6
2017-May-23 21:30N 56°41' E 011°57'510.2
2017-May-23 21:00N 56°36' E 011°57'  
2017-May-21 08:59N 56°20' E 011°53'2111.7
2017-May-21 07:10N 56°41' E 011°51'311.4
2017-May-21 06:53N 56°45' E 011°51'410.9
2017-May-21 06:30N 56°49' E 011°49'611.0
2017-May-21 06:00N 56°54' E 011°46'511.0
2017-May-21 05:30N 56°59' E 011°43'610.7
2017-May-21 04:58N 57°04' E 011°39'510.7
2017-May-21 04:29N 57°09' E 011°36'510.9
2017-May-21 04:00N 57°14' E 011°33'511.1
2017-May-21 03:30N 57°19' E 011°30'611.3
2017-May-21 03:00N 57°25' E 011°26'510.9
2017-May-21 02:30N 57°30' E 011°24'611.5
2017-May-21 02:00N 57°36' E 011°24'611.4
2017-May-21 01:30N 57°42' E 011°25'611.3
2017-May-21 01:00N 57°47' E 011°25'510.4
2017-May-21 00:31N 57°52' E 011°29'5 9.5
2017-May-21 00:00N 57°55' E 011°36'510.1
2017-May-20 23:30N 57°58' E 011°43'610.1
2017-May-20 22:54N 58°04' E 011°47'4 9.8
2017-May-20 22:28N 58°08' E 011°50'6 9.9
2017-May-20 21:54N 58°13' E 011°51'8 0.3
2017-May-19 22:39N 58°21' E 011°54'0 0.0
2017-May-19 22:12N 58°21' E 011°54'0 0.0
2017-May-19 22:00N 58°21' E 011°54'4 0.1
2017-May-18 03:59N 58°19' E 011°48'610.0
2017-May-18 03:26N 58°13' E 011°51'4 9.9
2017-May-18 02:59N 58°09' E 011°50'5 9.7
2017-May-18 02:26N 58°04' E 011°47'4 9.5
2017-May-18 02:00N 57°60' E 011°45'610.0
2017-May-18 01:27N 57°56' E 011°39'4 9.9
2017-May-18 01:00N 57°54' E 011°31'5 9.7
2017-May-18 00:30N 57°50' E 011°24'4 8.6
2017-May-18 00:00N 57°50' E 011°17'4 8.6
2017-May-17 23:30N 57°49' E 011°08'4 8.7
2017-May-17 23:00N 57°49' E 011°00'  

Dump ship's entire track history